Time;durP1;ratioP1;P1;durP2;ratioP2;P2;SDS_P1;SDS_P2;PMS_P1;PMS_P2;Temp;Humidity;BMP_temperature;BMP_pressure;BME280_temperature;BME280_humidity;BME280_pressure;Samples;Min_cycle;Max_cycle;Signal;HPM_P1;HPM_P2
2024/03/21 00:01:56;;;;;;;22.20;13.50;;;;;;;5.81;100.00;101016.67;105954;1256;74577;-84
2024/03/21 00:04:24;;;;;;;24.30;14.00;;;;;;;5.84;100.00;101015.29;105900;1254;68428;-77
2024/03/21 00:07:01;;;;;;;31.80;16.20;;;;;;;5.79;100.00;101011.92;105876;1254;72673;-84
2024/03/21 00:09:39;;;;;;;41.30;19.10;;;;;;;5.77;100.00;101012.48;105691;1259;61226;-84
2024/03/21 00:12:13;;;;;;;43.20;20.50;;;;;;;5.78;100.00;101017.16;107067;1254;61345;-78
2024/03/21 00:14:41;;;;;;;26.70;14.50;;;;;;;5.76;100.00;101018.73;105867;1256;74683;-77
2024/03/21 00:17:15;;;;;;;23.20;13.50;;;;;;;5.76;100.00;101017.11;105971;1253;68478;-77
2024/03/21 00:19:48;;;;;;;24.70;12.70;;;;;;;5.72;100.00;101018.47;105921;1254;71303;-84
2024/03/21 00:22:16;;;;;;;24.30;12.20;;;;;;;5.72;100.00;101015.38;105739;1257;61832;-84
2024/03/21 00:24:50;;;;;;;27.40;13.80;;;;;;;5.70;100.00;101014.13;105696;1254;61276;-78
2024/03/21 00:27:25;;;;;;;24.70;13.60;;;;;;;5.69;100.00;101014.60;105787;1253;73423;-77
2024/03/21 00:29:58;;;;;;;25.80;13.60;;;;;;;5.68;100.00;101012.38;105651;1259;67264;-84
2024/03/21 00:32:26;;;;;;;22.80;12.80;;;;;;;5.69;100.00;101008.64;105745;1254;72738;-83
2024/03/21 00:35:00;;;;;;;24.60;13.50;;;;;;;5.73;100.00;101014.27;106582;1258;61321;-78
2024/03/21 00:37:34;;;;;;;22.20;12.50;;;;;;;5.76;100.00;101014.45;106667;1254;59350;-84
2024/03/21 00:40:09;;;;;;;23.10;11.80;;;;;;;5.78;100.00;101009.36;106310;1257;74555;-84
2024/03/21 00:42:42;;;;;;;21.90;12.50;;;;;;;5.78;100.00;101010.86;106142;1254;68773;-78
2024/03/21 00:45:16;;;;;;;23.70;11.80;;;;;;;5.79;100.00;101011.72;106268;1259;73589;-78
2024/03/21 00:47:49;;;;;;;21.70;11.90;;;;;;;5.84;100.00;101010.31;106280;1254;61213;-84
2024/03/21 00:50:23;;;;;;;21.70;10.60;;;;;;;5.85;100.00;101011.59;106030;1254;61439;-78
2024/03/21 00:52:51;;;;;;;21.50;11.30;;;;;;;5.84;100.00;101010.65;106101;1256;74641;-78
2024/03/21 00:55:25;;;;;;;20.30;10.20;;;;;;;5.87;100.00;101009.79;106620;1256;68376;-84
2024/03/21 00:57:59;;;;;;;18.80;10.50;;;;;;;5.87;100.00;101012.06;106105;1255;72606;-77
2024/03/21 01:00:27;;;;;;;18.40;9.20;;;;;;;5.88;100.00;101014.16;106330;1254;61295;-77
2024/03/21 01:03:02;;;;;;;18.90;9.90;;;;;;;5.90;100.00;101016.80;106192;1253;61237;-84
2024/03/21 01:05:36;;;;;;;18.20;9.30;;;;;;;5.90;100.00;101012.08;105763;1259;74595;-84
2024/03/21 01:08:11;;;;;;;18.30;8.70;;;;;;;5.88;100.00;101015.78;105774;1253;68821;-84
2024/03/21 01:10:49;;;;;;;15.40;7.80;;;;;;;5.89;100.00;101016.48;105731;1256;71838;-86
2024/03/21 01:13:23;;;;;;;16.10;8.70;;;;;;;5.88;100.00;101018.47;105886;1254;61718;-77
2024/03/21 01:15:57;;;;;;;16.70;7.90;;;;;;;5.88;100.00;101018.26;105802;1254;61333;-77
2024/03/21 01:18:37;;;;;;;17.30;8.20;;;;;;;5.88;100.00;101017.52;105827;1253;73532;-77
2024/03/21 01:21:05;;;;;;;17.00;8.30;;;;;;;5.88;100.00;101016.84;106322;1257;68382;-78
2024/03/21 01:23:39;;;;;;;17.50;8.10;;;;;;;5.89;100.00;101017.48;105849;1259;72752;-83
2024/03/21 01:26:12;;;;;;;17.60;8.30;;;;;;;5.92;100.00;101015.86;105942;1253;61693;-84
2024/03/21 01:28:46;;;;;;;14.10;6.80;;;;;;;5.93;100.00;101013.90;105928;1254;61297;-84
2024/03/21 01:31:20;;;;;;;18.50;7.60;;;;;;;5.97;100.00;101012.77;105820;1259;74641;-77
2024/03/21 01:33:54;;;;;;;16.70;8.00;;;;;;;5.95;100.00;101013.10;105944;1254;68533;-85
2024/03/21 01:36:30;;;;;;;14.00;7.40;;;;;;;5.99;100.00;101005.70;105717;1256;72626;-84
2024/03/21 01:39:03;;;;;;;14.50;7.40;;;;;;;5.95;100.00;101006.68;105946;1254;61321;-83
2024/03/21 01:41:31;;;;;;;15.80;7.70;;;;;;;5.94;100.00;101006.48;105828;1259;61333;-77
2024/03/21 01:44:05;;;;;;;14.40;8.20;;;;;;;5.89;100.00;101004.89;105799;1256;74613;-83
2024/03/21 01:46:38;;;;;;;16.50;6.90;;;;;;;5.97;100.00;101007.48;105988;1258;67445;-84
2024/03/21 01:49:19;;;;;;;14.90;7.40;;;;;;;5.98;100.00;101007.35;105922;1253;72957;-84
2024/03/21 01:51:58;;;;;;;15.50;7.60;;;;;;;5.93;100.00;101005.74;106812;1254;61330;-79
2024/03/21 01:54:33;;;;;;;14.20;7.30;;;;;;;5.96;100.00;101001.88;106715;1258;60756;-83
2024/03/21 01:57:06;;;;;;;14.90;7.40;;;;;;;5.97;100.00;101003.39;106107;1256;74802;-77
2024/03/21 01:59:46;;;;;;;13.70;7.10;;;;;;;5.98;100.00;101003.64;105969;1253;68569;-84
2024/03/21 02:02:26;;;;;;;17.50;7.40;;;;;;;5.97;100.00;101007.88;105872;1255;72643;-84
2024/03/21 02:05:00;;;;;;;14.90;7.00;;;;;;;5.94;100.00;101007.86;105950;1256;61337;-85
2024/03/21 02:07:33;;;;;;;14.80;7.00;;;;;;;5.94;100.00;101011.42;106087;1253;61242;-85
2024/03/21 02:10:15;;;;;;;16.20;6.90;;;;;;;5.95;100.00;101004.27;105887;1253;74720;-79
2024/03/21 02:12:55;;;;;;;14.00;7.00;;;;;;;5.91;100.00;101005.56;105993;1257;68427;-85
2024/03/21 02:15:36;;;;;;;14.80;7.70;;;;;;;5.90;100.00;101004.48;106004;1254;73044;-79
2024/03/21 02:18:16;;;;;;;17.80;7.80;;;;;;;5.93;100.00;101003.65;102514;1253;4867007;-77
2024/03/21 02:20:56;;;;;;;18.10;8.50;;;;;;;5.92;100.00;101001.39;105947;1253;61322;-78
2024/03/21 02:23:36;;;;;;;16.50;8.60;;;;;;;5.92;100.00;100998.03;106369;1256;73334;-77
2024/03/21 02:26:16;;;;;;;16.90;8.20;;;;;;;5.95;100.00;100996.38;107427;1253;67255;-85
2024/03/21 02:28:56;;;;;;;14.30;7.00;;;;;;;5.97;100.00;101002.34;106656;1257;71091;-84
2024/03/21 02:31:36;;;;;;;18.10;7.90;;;;;;;5.95;100.00;101000.56;106077;1253;61237;-78
2024/03/21 02:34:16;;;;;;;16.20;8.90;;;;;;;5.95;100.00;101003.05;106067;1253;61346;-85
2024/03/21 02:36:56;;;;;;;19.30;8.70;;;;;;;5.91;100.00;101004.51;105980;1257;73731;-84
2024/03/21 02:39:36;;;;;;;21.40;9.60;;;;;;;5.90;100.00;101004.98;105907;1257;67266;-77
2024/03/21 02:42:16;;;;;;;14.30;6.80;;;;;;;5.86;100.00;101009.54;106074;1252;72610;-77
2024/03/21 02:44:56;;;;;;;14.50;6.70;;;;;;;5.79;100.00;101009.86;105915;1254;61248;-77
2024/03/21 02:47:36;;;;;;;19.20;7.90;;;;;;;5.70;100.00;101013.83;105883;1257;61139;-78
2024/03/21 02:50:16;;;;;;;18.10;7.70;;;;;;;5.73;100.00;101012.58;105925;1259;74652;-85
2024/03/21 02:52:50;;;;;;;16.30;7.50;;;;;;;5.67;100.00;101010.04;106021;1254;67237;-85
2024/03/21 02:55:23;;;;;;;13.70;7.50;;;;;;;5.67;100.00;101006.36;105886;1254;73032;-84
2024/03/21 02:58:03;;;;;;;15.70;7.40;;;;;;;5.63;100.00;101010.42;105920;1257;61361;-85
2024/03/21 03:00:43;;;;;;;17.00;7.50;;;;;;;5.64;100.00;101017.45;106105;1254;61240;-84
2024/03/21 03:03:22;;;;;;;14.70;6.60;;;;;;;5.59;100.00;101021.35;105914;1257;75710;-84
2024/03/21 03:06:02;;;;;;;19.70;8.60;;;;;;;5.68;100.00;101030.40;106429;1254;68378;-83
2024/03/21 03:08:42;;;;;;;17.90;8.10;;;;;;;5.56;100.00;101032.27;106017;1254;71211;-85
2024/03/21 03:11:15;;;;;;;14.80;7.60;;;;;;;5.57;100.00;101035.60;106092;1254;61165;-82
2024/03/21 03:13:49;;;;;;;20.10;8.40;;;;;;;5.60;100.00;101038.02;106120;1258;61256;-84
2024/03/21 03:16:29;;;;;;;16.10;7.40;;;;;;;5.55;100.00;101035.25;105986;1253;74676;-85
2024/03/21 03:19:12;;;;;;;16.90;7.30;;;;;;;5.56;100.00;101037.63;105825;1256;68437;-78
2024/03/21 03:21:52;;;;;;;20.80;8.50;;;;;;;5.51;100.00;101040.02;106105;1255;71366;-85
2024/03/21 03:24:31;;;;;;;13.50;7.00;;;;;;;5.49;100.00;101043.15;105951;1253;61189;-84
2024/03/21 03:27:05;;;;;;;16.20;7.30;;;;;;;5.48;100.00;101048.98;105846;1254;61149;-78
2024/03/21 03:29:39;;;;;;;16.40;7.70;;;;;;;5.52;100.00;101048.94;105765;1252;73380;-83
2024/03/21 03:32:21;;;;;;;17.30;7.40;;;;;;;5.48;100.00;101053.42;105980;1256;67169;-85
2024/03/21 03:37:59;;;;;;;18.90;8.30;;;;;;;5.51;100.00;101053.02;105845;1257;61362;-78
2024/03/21 03:40:39;;;;;;;16.80;7.70;;;;;;;5.54;100.00;101052.30;106312;1256;61222;-78
2024/03/21 03:43:19;;;;;;;17.30;8.20;;;;;;;5.57;100.00;101057.16;106470;1254;74591;-85
2024/03/21 03:45:59;;;;;;;16.60;7.30;;;;;;;5.58;100.00;101057.88;106465;1258;68011;-79
2024/03/21 03:48:32;;;;;;;16.10;8.00;;;;;;;5.57;100.00;101058.71;106402;1254;73010;-85
2024/03/21 03:51:12;;;;;;;17.70;7.90;;;;;;;5.54;100.00;101067.17;107207;1257;61349;-85
2024/03/21 03:53:52;;;;;;;16.80;8.10;;;;;;;5.55;100.00;101072.46;106391;1253;61289;-78
2024/03/21 03:56:26;;;;;;;14.70;7.80;;;;;;;5.52;100.00;101076.54;106414;1257;74709;-78
2024/03/21 03:58:59;;;;;;;18.60;7.90;;;;;;;5.47;100.00;101082.04;106779;1254;67635;-78
2024/03/21 04:01:41;;;;;;;16.30;7.80;;;;;;;5.43;100.00;101081.01;106462;1256;71468;-78
2024/03/21 04:04:21;;;;;;;18.60;8.30;;;;;;;5.37;100.00;101087.88;106503;1254;61314;-85
2024/03/21 04:06:56;;;;;;;17.40;7.80;;;;;;;5.33;100.00;101086.48;106216;1254;61442;-85
2024/03/21 04:09:31;;;;;;;16.70;7.60;;;;;;;5.33;100.00;101088.91;106468;1254;74674;-85
2024/03/21 04:12:11;;;;;;;20.30;7.50;;;;;;;5.37;100.00;101092.72;106392;1254;67436;-78
2024/03/21 04:14:52;;;;;;;17.40;8.00;;;;;;;5.35;100.00;101097.00;106417;1257;71382;-85
2024/03/21 04:17:26;;;;;;;22.70;7.70;;;;;;;5.32;100.00;101096.17;106400;1254;61145;-78
2024/03/21 04:20:00;;;;;;;16.50;8.60;;;;;;;5.35;100.00;101102.67;106322;1254;61976;-85
2024/03/21 04:22:40;;;;;;;17.40;7.30;;;;;;;5.38;100.00;101101.05;106379;1253;73735;-79
2024/03/21 04:25:20;;;;;;;16.50;7.50;;;;;;;5.39;100.00;101104.01;106697;1258;69318;-78
2024/03/21 04:27:54;;;;;;;18.20;9.10;;;;;;;5.42;100.00;101100.70;106544;1254;71711;-85
2024/03/21 04:30:27;;;;;;;14.40;8.00;;;;;;;5.45;100.00;101099.80;106538;1253;61323;-85
2024/03/21 04:33:07;;;;;;;15.30;7.40;;;;;;;5.50;100.00;101101.86;106467;1253;61246;-78
2024/03/21 04:35:47;;;;;;;18.30;8.30;;;;;;;5.53;100.00;101102.27;106841;1254;73886;-85
2024/03/21 04:38:21;;;;;;;16.00;8.00;;;;;;;5.53;100.00;101102.97;106521;1257;68812;-77
2024/03/21 04:41:07;;;;;;;17.80;7.80;;;;;;;5.56;100.00;101099.52;106572;1257;72674;-78
2024/03/21 04:43:47;;;;;;;18.00;7.80;;;;;;;5.55;100.00;101107.95;106436;1253;61374;-78
2024/03/21 04:46:27;;;;;;;16.50;8.30;;;;;;;5.61;100.00;101111.90;106509;1254;61352;-78
2024/03/21 04:49:07;;;;;;;16.90;9.00;;;;;;;5.65;100.00;101109.19;106367;1252;73430;-84
2024/03/21 04:51:34;;;;;;;20.60;8.60;;;;;;;5.69;100.00;101113.02;106628;1254;68396;-85
2024/03/21 04:54:15;;;;;;;16.10;8.40;;;;;;;5.66;100.00;101114.98;106328;1254;72695;-79
2024/03/21 04:56:57;;;;;;;14.40;8.30;;;;;;;5.74;100.00;101114.11;106342;1258;61295;-85
2024/03/21 04:59:36;;;;;;;12.90;8.10;;;;;;;5.76;100.00;101110.36;106499;1254;61366;-78
2024/03/21 05:02:04;;;;;;;18.50;7.90;;;;;;;5.81;100.00;101109.71;106742;1257;74699;-85
2024/03/21 05:04:44;;;;;;;17.10;8.00;;;;;;;5.81;100.00;101113.03;106299;1257;67582;-78
2024/03/21 05:07:23;;;;;;;17.60;7.60;;;;;;;5.78;100.00;101114.75;107666;1252;71463;-78
2024/03/21 05:10:04;;;;;;;15.40;8.00;;;;;;;5.77;100.00;101110.70;107743;1253;60931;-78
2024/03/21 05:12:32;;;;;;;16.50;8.10;;;;;;;5.72;100.00;101114.63;106658;1254;59958;-84
2024/03/21 05:15:12;;;;;;;17.40;8.10;;;;;;;5.77;100.00;101118.52;106462;1258;73766;-85
2024/03/21 05:17:51;;;;;;;17.40;8.40;;;;;;;5.81;100.00;101120.89;106651;1259;67607;-78
2024/03/21 05:20:27;;;;;;;17.50;8.10;;;;;;;5.88;100.00;101119.71;106297;1257;71553;-85
2024/03/21 05:23:00;;;;;;;12.90;7.50;;;;;;;5.93;100.00;101123.02;106700;1253;61256;-84
2024/03/21 05:25:43;;;;;;;14.80;8.10;;;;;;;5.96;100.00;101120.86;106303;1254;61240;-78
2024/03/21 05:28:22;;;;;;;19.10;7.90;;;;;;;6.10;100.00;101125.87;106322;1254;75702;-83
2024/03/21 05:30:56;;;;;;;17.50;8.20;;;;;;;6.19;100.00;101125.41;106441;1257;67231;-84
2024/03/21 05:33:30;;;;;;;18.20;8.20;;;;;;;6.27;100.00;101126.23;106429;1254;71815;-78
2024/03/21 05:36:10;;;;;;;21.40;8.00;;;;;;;6.28;100.00;101129.75;106296;1256;61413;-78
2024/03/21 05:38:50;;;;;;;17.90;8.40;;;;;;;6.28;100.00;101131.34;106379;1259;61112;-84
2024/03/21 05:41:24;;;;;;;18.20;7.80;;;;;;;6.35;100.00;101130.67;106400;1254;73443;-78
2024/03/21 05:43:57;;;;;;;17.50;8.00;;;;;;;6.43;100.00;101132.50;106215;1254;67092;-78
2024/03/21 05:46:32;;;;;;;16.30;7.70;;;;;;;6.41;100.00;101137.71;106502;1254;72622;-84
2024/03/21 05:49:06;;;;;;;14.60;7.80;;;;;;;6.43;100.00;101134.75;106382;1254;61298;-84
2024/03/21 05:51:39;;;;;;;16.30;8.30;;;;;;;6.48;100.00;101139.36;106149;1259;61160;-79
2024/03/21 05:54:13;;;;;;;14.60;8.30;;;;;;;6.53;100.00;101141.80;106354;1258;75172;-83
2024/03/21 05:56:41;;;;;;;23.90;11.00;;;;;;;6.58;100.00;101143.94;106372;1254;66886;-78
2024/03/21 05:59:14;;;;;;;19.50;8.90;;;;;;;6.62;100.00;101144.83;107027;1259;72775;-84
2024/03/21 06:01:42;;;;;;;18.90;9.40;;;;;;;6.62;100.00;101151.64;106481;1256;61362;-81
2024/03/21 06:04:16;;;;;;;17.20;9.20;;;;;;;6.58;100.00;101154.77;106401;1259;61303;-78
2024/03/21 06:06:44;;;;;;;20.10;8.80;;;;;;;6.67;100.00;101155.90;106672;1253;76912;-78
2024/03/21 06:09:21;;;;;;;19.50;10.10;;;;;;;6.69;100.00;101161.41;106696;1256;69667;-78
2024/03/21 06:11:55;;;;;;;24.60;11.90;;;;;;;6.66;100.00;101163.14;106390;1254;71101;-78
2024/03/21 06:14:29;;;;;;;26.30;11.50;;;;;;;6.59;100.00;101170.91;106366;1259;61222;-78
2024/03/21 06:17:03;;;;;;;20.70;9.30;;;;;;;6.62;100.00;101163.42;106335;1252;61259;-78
2024/03/21 06:19:37;;;;;;;27.60;10.00;;;;;;;6.64;100.00;101169.05;106418;1253;74848;-77
2024/03/21 06:22:11;;;;;;;20.70;9.70;;;;;;;6.64;100.00;101167.39;106591;1254;67095;-85
2024/03/21 06:24:44;;;;;;;17.40;9.30;;;;;;;6.68;100.00;101171.50;106551;1259;71364;-85
2024/03/21 06:27:19;;;;;;;23.50;10.50;;;;;;;6.68;100.00;101174.45;106632;1253;61235;-84
2024/03/21 06:29:53;;;;;;;16.30;10.00;;;;;;;6.69;100.00;101171.90;106301;1253;61163;-78
2024/03/21 06:32:26;;;;;;;17.40;9.60;;;;;;;6.72;100.00;101176.91;106494;1254;74649;-78
2024/03/21 06:35:00;;;;;;;21.20;10.70;;;;;;;6.72;100.00;101176.33;106400;1256;69738;-82
2024/03/21 06:37:34;;;;;;;20.60;8.90;;;;;;;6.73;100.00;101171.00;106748;1254;74756;-83
2024/03/21 06:40:08;;;;;;;18.10;9.00;;;;;;;6.76;100.00;101172.66;107740;1254;62354;-78
2024/03/21 06:42:42;;;;;;;19.70;8.60;;;;;;;6.80;100.00;101171.38;106660;1257;61244;-78
2024/03/21 06:45:14;;;;;;;18.10;9.50;;;;;;;6.80;100.00;101171.12;106535;1254;73366;-84
2024/03/21 06:47:50;;;;;;;27.20;10.20;;;;;;;6.83;100.00;101173.63;106541;1254;69725;-78
2024/03/21 06:50:22;;;;;;;19.30;9.30;;;;;;;6.85;100.00;101176.34;106399;1258;72612;-79
2024/03/21 06:52:57;;;;;;;18.90;9.10;;;;;;;6.89;100.00;101175.45;106527;1254;61381;-79
2024/03/21 06:55:29;;;;;;;20.30;9.10;;;;;;;6.89;100.00;101178.11;106448;1254;62013;-84
2024/03/21 06:58:03;;;;;;;21.00;10.50;;;;;;;6.89;100.00;101179.63;106472;1254;73423;-84
2024/03/21 07:00:35;;;;;;;23.10;10.70;;;;;;;7.00;100.00;101179.16;106537;1254;69901;-84
2024/03/21 07:03:09;;;;;;;23.20;11.60;;;;;;;7.01;100.00;101175.55;106709;1254;73794;-84
2024/03/21 07:05:40;;;;;;;14.60;7.90;;;;;;;7.07;100.00;101175.59;106506;1254;61355;-83
2024/03/21 07:08:13;;;;;;;22.30;10.30;;;;;;;7.14;100.00;101174.68;107044;1253;61442;-84
2024/03/21 07:10:46;;;;;;;19.60;9.50;;;;;;;7.16;100.00;101178.16;106320;1254;76803;-84
2024/03/21 07:13:20;;;;;;;20.70;9.90;;;;;;;7.17;100.00;101183.69;106578;1254;71372;-84
2024/03/21 07:15:52;;;;;;;24.00;10.00;;;;;;;7.24;100.00;101180.17;106461;1254;75430;-84
2024/03/21 07:18:25;;;;;;;22.20;10.20;;;;;;;7.27;100.00;101183.57;106637;1254;62260;-84
2024/03/21 07:20:59;;;;;;;24.30;11.00;;;;;;;7.31;100.00;101184.74;107153;1253;61254;-84
2024/03/21 07:23:33;;;;;;;23.20;9.30;;;;;;;7.38;100.00;101191.94;106463;1254;76439;-83
2024/03/21 07:26:07;;;;;;;21.70;10.30;;;;;;;7.42;100.00;101191.86;106618;1254;71763;-83
2024/03/21 07:28:35;;;;;;;19.60;10.20;;;;;;;7.50;100.00;101190.85;106328;1254;74904;-83
2024/03/21 07:31:03;;;;;;;24.20;11.80;;;;;;;7.57;100.00;101190.92;106517;1259;61152;-83
2024/03/21 07:33:37;;;;;;;20.80;9.50;;;;;;;7.60;100.00;101186.80;106011;1259;61365;-83
2024/03/21 07:36:11;;;;;;;14.60;8.50;;;;;;;7.74;100.00;101190.39;106430;1254;76082;-83
2024/03/21 07:38:45;;;;;;;441.80;221.00;;;;;;;7.85;100.00;101199.20;106247;1256;70042;-83
2024/03/21 07:41:21;;;;;;;20.30;10.60;;;;;;;7.98;100.00;101201.34;106038;1254;74899;-82
2024/03/21 07:43:55;;;;;;;24.40;10.80;;;;;;;7.97;100.00;101203.73;105858;1259;63186;-83
2024/03/21 07:46:29;;;;;;;20.90;10.60;;;;;;;8.08;100.00;101202.69;105622;1252;62610;-83
2024/03/21 07:49:04;;;;;;;23.40;11.00;;;;;;;8.20;100.00;101198.75;106353;1253;73445;-82
2024/03/21 07:51:38;;;;;;;19.20;10.80;;;;;;;8.27;100.00;101202.73;105940;1257;70576;-82
2024/03/21 07:54:06;;;;;;;18.50;9.80;;;;;;;8.43;100.00;101204.63;105959;1254;74999;-81
2024/03/21 07:56:37;;;;;;;16.90;9.40;;;;;;;8.59;100.00;101205.91;105915;1254;61609;-83
2024/03/21 07:59:10;;;;;;;23.10;10.10;;;;;;;8.65;100.00;101208.48;106317;1254;61371;-83
2024/03/21 08:01:44;;;;;;;21.10;10.50;;;;;;;8.77;100.00;101206.70;105874;1259;76670;-83
2024/03/21 08:04:12;;;;;;;21.50;10.20;;;;;;;8.95;100.00;101206.39;105945;1259;69603;-82
2024/03/21 08:06:46;;;;;;;18.70;10.30;;;;;;;9.09;100.00;101205.36;107315;1254;70999;-83
2024/03/21 08:09:20;;;;;;;23.60;11.70;;;;;;;9.18;100.00;101203.48;106093;1257;61426;-77
2024/03/21 08:11:56;;;;;;;23.20;10.30;;;;;;;9.18;100.00;101199.56;106141;1254;61321;-77
2024/03/21 08:14:23;;;;;;;25.30;10.00;;;;;;;9.27;100.00;101197.89;106098;1254;75366;-77
2024/03/21 08:16:57;;;;;;;21.40;11.20;;;;;;;9.46;100.00;101196.81;106018;1254;71179;-78
2024/03/21 08:19:32;;;;;;;21.20;10.30;;;;;;;9.59;100.00;101190.76;106019;1259;74515;-77
2024/03/21 08:22:06;;;;;;;19.30;10.30;;;;;;;9.77;100.00;101189.48;106799;1253;62755;-77
2024/03/21 08:24:34;;;;;;;19.80;10.20;;;;;;;9.93;100.00;101187.14;106418;1253;61656;-77
2024/03/21 08:27:08;;;;;;;18.60;9.80;;;;;;;10.08;100.00;101190.79;106621;1252;75630;-77
2024/03/21 08:29:43;;;;;;;20.40;10.90;;;;;;;10.27;100.00;101192.95;106414;1256;70012;-77
2024/03/21 08:32:13;;;;;;;20.80;10.20;;;;;;;10.43;100.00;101192.18;106737;1253;76198;-77
2024/03/21 08:34:48;;;;;;;18.60;10.20;;;;;;;10.60;100.00;101193.86;106020;1254;62527;-76
2024/03/21 08:37:22;;;;;;;31.20;28.00;;;;;;;10.80;100.00;101192.90;106156;1254;61336;-82
2024/03/21 08:39:57;;;;;;;22.10;14.60;;;;;;;10.92;100.00;101193.92;106084;1254;75641;-82
2024/03/21 08:42:25;;;;;;;19.10;10.60;;;;;;;10.98;100.00;101197.08;106105;1258;69796;-83
2024/03/21 08:44:59;;;;;;;19.40;10.30;;;;;;;11.02;100.00;101201.54;105800;1257;75369;-83
2024/03/21 08:47:33;;;;;;;20.70;10.40;;;;;;;11.05;100.00;101203.02;105908;1255;61352;-83
2024/03/21 08:50:07;;;;;;;19.00;10.80;;;;;;;11.07;100.00;101205.99;106186;1254;61282;-83
2024/03/21 08:52:35;;;;;;;20.90;11.60;;;;;;;11.03;100.00;101203.23;106130;1254;75659;-83
2024/03/21 08:55:09;;;;;;;18.90;11.20;;;;;;;11.09;100.00;101206.66;106005;1254;71572;-83
2024/03/21 08:57:43;;;;;;;16.70;10.70;;;;;;;11.10;100.00;101210.66;105939;1257;74980;-83
2024/03/21 09:00:17;;;;;;;18.50;10.80;;;;;;;11.08;100.00;101206.98;105946;1258;63445;-83
2024/03/21 09:02:44;;;;;;;20.60;10.20;;;;;;;11.25;100.00;101204.89;106447;1254;62274;-83
2024/03/21 09:05:12;;;;;;;24.60;10.40;;;;;;;11.41;100.00;101208.69;105947;1258;75697;-82
2024/03/21 09:07:46;;;;;;;22.50;11.30;;;;;;;11.51;100.00;101206.55;106137;1253;69530;-83
2024/03/21 09:10:20;;;;;;;16.90;10.20;;;;;;;11.65;100.00;101207.59;105944;1256;73788;-83
2024/03/21 09:12:54;;;;;;;21.20;10.90;;;;;;;11.74;100.00;101211.52;105932;1258;61352;-84
2024/03/21 09:15:22;;;;;;;19.00;10.20;;;;;;;11.80;100.00;101210.70;106311;1254;62250;-85
2024/03/21 09:17:56;;;;;;;22.10;10.10;;;;;;;11.83;100.00;101211.82;105888;1256;75947;-84
2024/03/21 09:20:30;;;;;;;16.00;10.20;;;;;;;11.81;100.00;101212.59;106430;1257;71393;-85
2024/03/21 09:22:58;;;;;;;20.00;10.20;;;;;;;11.86;100.00;101215.61;106227;1259;73587;-83
2024/03/21 09:25:25;;;;;;;21.30;11.30;;;;;;;11.88;100.00;101210.25;106015;1259;62006;-83
2024/03/21 09:27:59;;;;;;;22.40;10.40;;;;;;;11.95;100.00;101210.67;106158;1254;63914;-83
2024/03/21 09:30:34;;;;;;;21.10;11.40;;;;;;;12.08;100.00;101204.35;105874;1254;76084;-82
2024/03/21 09:33:02;;;;;;;19.30;12.30;;;;;;;12.19;100.00;101206.08;106491;1259;69988;-82
2024/03/21 09:35:35;;;;;;;21.50;11.20;;;;;;;12.26;100.00;101202.91;106005;1254;74888;-82
2024/03/21 09:38:10;;;;;;;20.50;11.40;;;;;;;12.28;100.00;101201.86;105896;1260;61397;-84
2024/03/21 09:40:38;;;;;;;22.30;10.20;;;;;;;12.24;100.00;101206.23;106204;1255;62042;-82
2024/03/21 09:43:12;;;;;;;18.20;10.60;;;;;;;12.17;100.00;101207.21;106087;1259;75941;-77
2024/03/21 09:45:46;;;;;;;20.20;10.70;;;;;;;12.17;100.00;101204.70;105918;1259;71115;-82
2024/03/21 09:48:21;;;;;;;19.20;10.40;;;;;;;12.14;100.00;101204.36;106047;1259;72782;-76
2024/03/21 09:50:55;;;;;;;23.70;12.10;;;;;;;12.11;100.00;101204.90;105849;1261;62152;-76
2024/03/21 09:53:23;;;;;;;18.10;10.10;;;;;;;12.12;100.00;101204.09;107427;1256;61106;-76
2024/03/21 09:55:57;;;;;;;19.00;9.80;;;;;;;12.13;100.00;101202.83;106090;1254;75681;-76
2024/03/21 09:58:31;;;;;;;16.60;9.90;;;;;;;12.18;100.00;101201.85;106052;1260;71144;-82
2024/03/21 10:01:23;;;;;;;17.50;10.40;;;;;;;12.23;100.00;101203.06;105972;1257;73825;-77
2024/03/21 10:03:52;;;;;;;20.40;10.00;;;;;;;12.25;100.00;101199.45;105877;1254;62262;-82
2024/03/21 10:06:24;;;;;;;21.20;11.20;;;;;;;12.29;100.00;101202.67;105884;1255;62415;-77
2024/03/21 10:08:58;;;;;;;18.80;10.50;;;;;;;12.33;100.00;101200.98;106276;1256;75027;-77
2024/03/21 10:11:32;;;;;;;18.10;9.10;;;;;;;12.35;100.00;101201.05;106627;1254;72778;-77
2024/03/21 10:14:00;;;;;;;36.30;33.10;;;;;;;12.40;100.00;101198.37;105977;1260;73770;-82
2024/03/21 10:16:34;;;;;;;17.30;10.00;;;;;;;12.46;100.00;101194.41;106013;1258;61308;-77
2024/03/21 10:19:08;;;;;;;15.10;9.30;;;;;;;12.58;100.00;101187.63;105968;1259;61357;-81
2024/03/21 10:21:42;;;;;;;18.10;10.10;;;;;;;12.66;100.00;101186.63;106121;1256;76656;-82
2024/03/21 10:24:16;;;;;;;17.50;9.00;;;;;;;12.74;100.00;101189.86;106132;1259;70933;-77
2024/03/21 10:26:50;;;;;;;16.10;9.50;;;;;;;12.74;100.00;101185.23;106168;1257;73733;-77
2024/03/21 10:29:23;;;;;;;19.60;10.10;;;;;;;12.72;100.00;101190.91;105959;1259;61252;-77
2024/03/21 10:31:57;;;;;;;19.60;9.90;;;;;;;12.78;100.00;101187.65;105998;1254;62010;-77
2024/03/21 10:34:31;;;;;;;19.50;9.50;;;;;;;12.82;100.00;101184.91;106000;1260;76646;-77
2024/03/21 10:37:04;;;;;;;17.20;8.80;;;;;;;12.96;100.00;101183.34;105844;1263;69850;-83
2024/03/21 10:39:38;;;;;;;18.30;9.70;;;;;;;13.02;100.00;101179.88;106539;1259;74786;-77
2024/03/21 10:42:25;;;;;;;21.00;14.20;;;;;;;13.03;100.00;101177.04;106090;1253;61346;-77
2024/03/21 10:45:01;;;;;;;17.50;9.00;;;;;;;12.98;100.00;101175.72;105913;1260;61423;-82
2024/03/21 10:47:35;;;;;;;20.70;9.10;;;;;;;13.06;100.00;101178.50;105957;1259;76668;-83
2024/03/21 10:50:18;;;;;;;15.90;8.50;;;;;;;13.11;100.00;101173.27;105976;1254;72215;-77
2024/03/21 10:52:55;;;;;;;18.40;8.90;;;;;;;13.10;100.00;101172.18;105953;1254;74784;-82
2024/03/21 10:55:29;;;;;;;15.50;11.40;;;;;;;13.03;100.00;101171.48;105978;1257;62278;-78
2024/03/21 10:58:05;;;;;;;18.40;8.90;;;;;;;12.97;100.00;101174.64;106383;1255;61347;-83
2024/03/21 11:00:38;;;;;;;15.80;8.80;;;;;;;12.87;100.00;101170.20;106105;1259;76774;-83
2024/03/21 11:03:12;;;;;;;17.80;9.20;;;;;;;12.85;100.00;101168.73;106016;1259;71388;-82
2024/03/21 11:06:09;;;;;;;17.30;9.50;;;;;;;12.79;100.00;101173.66;105746;1260;73757;-82
2024/03/21 11:08:37;;;;;;;16.60;8.50;;;;;;;12.81;100.00;101173.17;105816;1260;62880;-82
2024/03/21 11:11:11;;;;;;;14.70;8.20;;;;;;;12.89;100.00;101176.29;105969;1258;61298;-78
2024/03/21 11:13:45;;;;;;;17.90;8.40;;;;;;;13.06;100.00;101175.27;105907;1254;75152;-82
2024/03/21 11:16:19;;;;;;;16.30;9.10;;;;;;;13.23;100.00;101170.92;106097;1254;68814;-82
2024/03/21 11:18:53;;;;;;;14.00;8.80;;;;;;;13.31;100.00;101169.13;107158;1255;74714;-77
2024/03/21 11:21:26;;;;;;;17.50;9.30;;;;;;;13.36;100.00;101170.02;106058;1254;63117;-82
2024/03/21 11:24:04;;;;;;;17.60;9.60;;;;;;;13.40;100.00;101169.59;105931;1254;62197;-78
2024/03/21 11:26:38;;;;;;;21.00;15.40;;;;;;;13.47;100.00;101171.54;106255;1259;78178;-77
2024/03/21 11:29:13;;;;;;;17.00;11.60;;;;;;;13.48;100.00;101173.11;105785;1257;71043;-83
2024/03/21 11:31:52;;;;;;;15.60;9.60;;;;;;;13.43;100.00;101172.76;106028;1257;74036;-83
2024/03/21 11:34:26;;;;;;;25.90;15.60;;;;;;;13.34;100.00;101167.58;105998;1254;62367;-82
2024/03/21 11:37:00;;;;;;;23.70;15.00;;;;;;;13.39;100.00;101162.23;106148;1259;62054;-77
2024/03/21 11:39:39;;;;;;;26.80;14.00;;;;;;;13.43;100.00;101160.17;106245;1261;75380;-83
2024/03/21 11:42:13;;;;;;;14.80;8.90;;;;;;;13.50;100.00;101160.97;106135;1257;72570;-77